createdAt,value
2017-09-05T00:00:33.263Z,8.77
2017-09-05T00:03:00.714Z,9.07
2017-09-05T00:05:28.191Z,7.60
2017-09-05T00:08:13.316Z,8.90
2017-09-05T00:10:40.783Z,9.33
2017-09-05T00:13:08.650Z,9.50
2017-09-05T00:15:38.655Z,8.93
2017-09-05T00:18:16.959Z,8.47
2017-09-05T00:20:46.835Z,9.93
2017-09-05T00:23:14.289Z,8.90
2017-09-05T00:25:41.753Z,7.67
2017-09-05T00:28:09.209Z,7.63
2017-09-05T00:30:36.683Z,9.67
2017-09-05T00:33:04.131Z,9.07
2017-09-05T00:35:31.669Z,9.87
2017-09-05T00:37:59.213Z,8.27
2017-09-05T00:40:26.674Z,8.77
2017-09-05T00:42:54.130Z,8.63
2017-09-05T00:45:21.619Z,9.03
2017-09-05T00:47:49.042Z,7.30
2017-09-05T00:50:16.549Z,9.00
2017-09-05T00:52:44.014Z,6.90
2017-09-05T00:55:11.531Z,8.77
2017-09-05T00:57:39.030Z,9.20
2017-09-05T01:00:06.537Z,8.70
2017-09-05T01:02:34.078Z,9.23
2017-09-05T01:05:01.552Z,8.57
2017-09-05T01:07:29.098Z,9.37
2017-09-05T01:09:56.567Z,9.73
2017-09-05T01:12:24.127Z,9.10
2017-09-05T01:14:51.579Z,9.17
2017-09-05T01:17:19.129Z,8.27
2017-09-05T01:19:46.621Z,7.87
2017-09-05T01:22:14.077Z,7.17
2017-09-05T01:24:41.511Z,7.93
2017-09-05T01:27:09.062Z,6.33
2017-09-05T01:29:36.493Z,6.33
2017-09-05T01:32:04.017Z,7.37
2017-09-05T01:34:31.492Z,7.07
2017-09-05T01:36:58.985Z,6.87
2017-09-05T01:39:26.430Z,7.23
2017-09-05T01:41:54.098Z,7.00
2017-09-05T01:44:21.570Z,6.90
2017-09-05T01:46:49.114Z,7.00
2017-09-05T01:49:16.558Z,7.10
2017-09-05T01:51:44.025Z,6.83
2017-09-05T01:54:11.493Z,6.93
2017-09-05T01:56:38.989Z,6.77
2017-09-05T01:59:06.518Z,6.70
2017-09-05T02:01:34.063Z,6.27
2017-09-05T02:04:01.512Z,6.50
2017-09-05T02:06:28.987Z,8.07
2017-09-05T02:08:56.527Z,6.87
2017-09-05T02:11:24.017Z,7.53
2017-09-05T02:13:51.462Z,6.37
2017-09-05T02:16:18.950Z,7.30
2017-09-05T02:18:46.385Z,6.93
2017-09-05T02:21:13.881Z,7.77
2017-09-05T02:23:41.348Z,7.63
2017-09-05T02:26:08.794Z,7.30
2017-09-05T02:28:36.256Z,7.10
2017-09-05T02:31:03.811Z,7.87
2017-09-05T02:33:31.290Z,7.10
2017-09-05T02:35:58.758Z,8.27
2017-09-05T02:38:26.333Z,7.17
2017-09-05T02:40:53.874Z,8.63
2017-09-05T02:43:21.433Z,8.13
2017-09-05T02:45:48.877Z,8.20
2017-09-05T02:48:16.352Z,7.50
2017-09-05T02:50:43.814Z,8.70
2017-09-05T02:53:11.377Z,8.20
2017-09-05T02:55:38.844Z,7.57
2017-09-05T02:58:06.377Z,7.60
2017-09-05T03:00:33.813Z,7.80
2017-09-05T03:03:01.330Z,8.13
2017-09-05T03:05:28.769Z,8.07
2017-09-05T03:07:56.221Z,9.00
2017-09-05T03:10:23.747Z,8.27
2017-09-05T03:12:51.213Z,8.10
2017-09-05T03:15:18.653Z,7.50
2017-09-05T03:17:46.121Z,7.43
2017-09-05T03:20:13.557Z,9.60
2017-09-05T03:22:41.004Z,8.03
2017-09-05T03:25:08.585Z,8.93
2017-09-05T03:27:36.024Z,7.83
2017-09-05T03:30:03.527Z,7.57
2017-09-05T03:32:30.962Z,8.87
2017-09-05T03:34:58.445Z,7.83
2017-09-05T03:37:25.890Z,9.23
2017-09-05T03:39:53.447Z,8.53
2017-09-05T03:42:20.905Z,8.20
2017-09-05T03:44:48.368Z,7.93
2017-09-05T03:47:15.801Z,8.30
2017-09-05T03:49:43.481Z,9.03
2017-09-05T03:52:10.963Z,8.10
2017-09-05T03:54:38.443Z,8.37
2017-09-05T03:57:05.887Z,8.80
2017-09-05T03:59:33.407Z,9.27
2017-09-05T04:02:00.900Z,8.40
2017-09-05T04:04:28.395Z,8.33
2017-09-05T04:06:55.882Z,8.77
2017-09-05T04:09:23.338Z,8.90
2017-09-05T04:11:50.789Z,9.57
2017-09-05T04:14:18.269Z,10.03
2017-09-05T04:16:45.806Z,10.63
2017-09-05T04:19:13.291Z,10.53
2017-09-05T04:21:40.747Z,10.70
2017-09-05T04:24:08.309Z,9.90
2017-09-05T04:26:35.775Z,9.27
2017-09-05T04:29:03.253Z,8.63
2017-09-05T04:31:30.690Z,9.10
2017-09-05T04:33:58.161Z,8.10
2017-09-05T04:36:25.598Z,8.23
2017-09-05T04:38:53.135Z,9.03
2017-09-05T04:41:20.738Z,10.43
2017-09-05T04:43:48.251Z,11.50
2017-09-05T04:46:15.812Z,10.47
2017-09-05T04:48:43.353Z,11.47
2017-09-05T04:51:10.823Z,11.27
2017-09-05T04:53:38.264Z,12.33
2017-09-05T04:56:05.738Z,13.00
2017-09-05T04:58:33.181Z,14.70
2017-09-05T05:01:00.648Z,12.77
2017-09-05T05:03:28.090Z,11.30
2017-09-05T05:05:55.851Z,14.43
2017-09-05T05:08:23.314Z,13.20
2017-09-05T05:10:50.797Z,15.73
2017-09-05T05:13:18.274Z,15.70
2017-09-05T05:15:45.737Z,17.50
2017-09-05T05:18:13.182Z,15.87
2017-09-05T05:20:40.661Z,17.57
2017-09-05T05:23:08.100Z,17.80
2017-09-05T05:25:35.609Z,18.50
2017-09-05T05:28:03.053Z,18.93
2017-09-05T05:30:30.535Z,20.10
2017-09-05T05:32:57.991Z,18.87
2017-09-05T05:35:25.548Z,18.47
2017-09-05T05:37:53.213Z,20.07
2017-09-05T05:40:20.757Z,19.77
2017-09-05T05:42:48.194Z,19.17
2017-09-05T05:45:15.682Z,18.90
2017-09-05T05:47:43.148Z,16.40
2017-09-05T05:50:10.615Z,18.63
2017-09-05T05:52:38.067Z,17.70
2017-09-05T05:55:05.519Z,17.30
2017-09-05T05:57:32.985Z,18.20
2017-09-05T06:00:00.433Z,18.03
2017-09-05T06:02:27.899Z,16.93
2017-09-05T06:04:55.426Z,18.10
2017-09-05T06:07:22.904Z,17.87
2017-09-05T06:09:50.358Z,16.50
2017-09-05T06:12:17.902Z,16.13
2017-09-05T06:14:45.459Z,15.70
2017-09-05T06:17:12.939Z,15.30
2017-09-05T06:19:40.395Z,15.87
2017-09-05T06:22:07.951Z,14.90
2017-09-05T06:24:35.405Z,16.40
2017-09-05T06:27:02.949Z,15.37
2017-09-05T06:29:30.413Z,16.27
2017-09-05T06:31:57.877Z,16.83
2017-09-05T06:34:25.339Z,16.00
2017-09-05T06:36:52.809Z,18.37
2017-09-05T06:39:20.253Z,18.50
2017-09-05T06:41:47.726Z,17.33
2017-09-05T06:44:15.252Z,18.80
2017-09-05T06:46:42.793Z,19.57
2017-09-05T06:49:10.258Z,18.47
2017-09-05T06:51:37.775Z,17.87
2017-09-05T06:54:05.227Z,19.20
2017-09-05T06:56:32.664Z,20.03
2017-09-05T06:59:00.199Z,19.40
2017-09-05T07:01:27.754Z,18.87
2017-09-05T07:03:55.309Z,21.17
2017-09-05T07:06:22.805Z,19.07
2017-09-05T07:08:50.330Z,21.80
2017-09-05T07:11:17.793Z,13.97
2017-09-05T07:13:45.344Z,22.20
2017-09-05T07:16:12.809Z,21.00
2017-09-05T07:18:40.308Z,22.47
2017-09-05T07:21:07.778Z,23.20
2017-09-05T07:23:35.261Z,23.40
2017-09-05T07:26:02.715Z,20.10
2017-09-05T07:28:30.233Z,22.63
2017-09-05T07:30:57.685Z,20.10
2017-09-05T07:33:25.173Z,20.63
2017-09-05T07:35:52.653Z,20.73
2017-09-05T07:38:20.121Z,20.83
2017-09-05T07:40:47.601Z,20.13
2017-09-05T07:43:15.148Z,21.93
2017-09-05T07:45:42.673Z,21.07
2017-09-05T07:48:10.230Z,22.97
2017-09-05T07:50:37.698Z,21.60
2017-09-05T07:53:05.182Z,21.87
2017-09-05T07:55:32.638Z,21.40
2017-09-05T07:58:00.231Z,24.90
2017-09-05T08:00:27.728Z,22.87
2017-09-05T08:02:55.302Z,22.60
2017-09-05T08:05:22.768Z,22.93
2017-09-05T08:07:50.213Z,23.67
2017-09-05T08:10:18.099Z,20.20
2017-09-05T08:12:45.629Z,20.50
2017-09-05T08:15:13.124Z,20.27
2017-09-05T08:17:40.573Z,20.17
2017-09-05T08:20:08.132Z,19.40
2017-09-05T08:22:35.604Z,20.63
2017-09-05T08:25:03.112Z,18.00
2017-09-05T08:27:30.677Z,19.20
2017-09-05T08:29:58.221Z,21.63
2017-09-05T08:32:25.663Z,19.57
2017-09-05T08:34:53.129Z,18.83
2017-09-05T08:37:20.583Z,18.27
2017-09-05T08:39:48.164Z,17.20
2017-09-05T08:42:15.722Z,16.03
2017-09-05T08:44:43.284Z,16.10
2017-09-05T08:47:10.727Z,16.40
2017-09-05T08:49:38.281Z,15.20
2017-09-05T08:52:05.737Z,14.70
2017-09-05T08:54:33.193Z,12.27
2017-09-05T08:57:00.717Z,12.03
2017-09-05T08:59:28.189Z,13.77
2017-09-05T09:01:55.716Z,13.00
2017-09-05T09:04:23.166Z,12.23
2017-09-05T09:06:50.736Z,13.30
2017-09-05T09:09:18.233Z,11.90
2017-09-05T09:11:45.697Z,12.70
2017-09-05T09:14:13.168Z,12.70
2017-09-05T09:16:40.665Z,11.60
2017-09-05T09:19:08.127Z,14.37
2017-09-05T09:21:35.593Z,12.40
2017-09-05T09:24:03.047Z,12.87
2017-09-05T09:26:30.528Z,13.27
2017-09-05T09:28:57.997Z,13.60
2017-09-05T09:31:25.459Z,11.23
2017-09-05T09:33:53.020Z,11.97
2017-09-05T09:36:20.610Z,13.77
2017-09-05T09:38:48.129Z,12.50
2017-09-05T09:41:15.585Z,10.90
2017-09-05T09:43:43.062Z,12.20
2017-09-05T09:46:10.593Z,11.90
2017-09-05T09:48:38.038Z,12.90
2017-09-05T09:51:05.499Z,12.30
2017-09-05T09:53:32.983Z,11.30
2017-09-05T09:56:00.430Z,10.27
2017-09-05T09:58:27.928Z,9.40
2017-09-05T10:00:55.434Z,9.40
2017-09-05T10:03:23.017Z,9.40
2017-09-05T10:05:50.571Z,7.73
2017-09-05T10:08:18.131Z,9.03
2017-09-05T10:10:45.669Z,8.77
2017-09-05T10:13:13.230Z,9.13
2017-09-05T10:15:40.662Z,8.83
2017-09-05T10:18:08.131Z,8.90
2017-09-05T10:20:35.626Z,7.10
2017-09-05T10:23:03.127Z,7.60
2017-09-05T10:25:30.684Z,7.97
2017-09-05T10:27:58.167Z,7.00
2017-09-05T10:30:25.629Z,6.63
2017-09-05T10:32:53.208Z,6.67
2017-09-05T10:35:20.672Z,8.33
2017-09-05T10:37:48.169Z,7.40
2017-09-05T10:40:15.651Z,6.57
2017-09-05T10:42:43.102Z,7.57
2017-09-05T10:45:10.551Z,6.30
2017-09-05T10:47:38.005Z,6.63
2017-09-05T10:50:05.535Z,7.33
2017-09-05T10:52:32.995Z,6.27
2017-09-05T10:55:00.476Z,6.77
2017-09-05T10:57:27.923Z,6.67
2017-09-05T10:59:55.419Z,5.47
2017-09-05T11:02:22.917Z,5.20
2017-09-05T11:04:50.395Z,5.93
2017-09-05T11:07:17.876Z,5.57
2017-09-05T11:09:45.352Z,5.77
2017-09-05T11:12:12.806Z,4.87
2017-09-05T11:14:40.267Z,5.20
2017-09-05T11:17:07.728Z,6.30
2017-09-05T11:19:35.335Z,6.37
2017-09-05T11:22:02.774Z,5.50
2017-09-05T11:24:30.282Z,4.60
2017-09-05T11:26:57.752Z,4.40
2017-09-05T11:29:25.302Z,5.90
2017-09-05T11:31:53.338Z,5.10
2017-09-05T11:34:20.804Z,5.53
2017-09-05T11:36:48.275Z,5.80
2017-09-05T11:39:15.806Z,5.50
2017-09-05T11:41:43.237Z,5.50
2017-09-05T11:44:10.787Z,5.47
2017-09-05T11:46:38.333Z,5.13
2017-09-05T11:49:05.791Z,4.40
2017-09-05T11:51:33.333Z,4.43
2017-09-05T11:54:00.922Z,4.33
2017-09-05T11:56:28.468Z,5.00
2017-09-05T11:58:56.011Z,4.83
2017-09-05T12:01:23.489Z,5.20
2017-09-05T12:03:50.940Z,5.53
2017-09-05T12:06:18.405Z,4.60
2017-09-05T12:08:45.866Z,4.10
2017-09-05T12:11:13.347Z,4.80
2017-09-05T12:13:41.973Z,5.63
2017-09-05T12:16:09.436Z,4.97
2017-09-05T12:18:36.893Z,4.73
2017-09-05T12:21:04.381Z,5.00
2017-09-05T12:23:31.841Z,3.80
2017-09-05T12:25:59.302Z,3.20
2017-09-05T12:28:26.777Z,3.47
2017-09-05T12:30:54.289Z,3.10
2017-09-05T12:33:21.755Z,2.93
2017-09-05T12:35:49.253Z,3.17
2017-09-05T12:38:16.752Z,2.07
2017-09-05T12:40:44.211Z,3.73
2017-09-05T12:43:11.657Z,2.90
2017-09-05T12:45:39.118Z,1.90
2017-09-05T12:48:06.564Z,2.50
2017-09-05T12:50:34.125Z,3.03
2017-09-05T12:53:01.589Z,3.80
2017-09-05T12:55:29.045Z,3.40
2017-09-05T12:57:56.516Z,3.20
2017-09-05T13:00:24.056Z,3.33
2017-09-05T13:02:51.534Z,4.30
2017-09-05T13:05:18.981Z,3.00
2017-09-05T13:07:46.477Z,4.50
2017-09-05T13:10:14.052Z,4.40
2017-09-05T13:12:41.509Z,3.90
2017-09-05T13:15:09.019Z,3.83
2017-09-05T13:17:36.532Z,4.10
2017-09-05T13:20:03.966Z,4.03
2017-09-05T13:22:31.478Z,4.50
2017-09-05T13:24:58.948Z,3.77
2017-09-05T13:27:26.517Z,4.40
2017-09-05T13:29:54.057Z,3.97
2017-09-05T13:32:21.626Z,4.37
2017-09-05T13:34:49.065Z,3.30
2017-09-05T13:37:16.513Z,3.97
2017-09-05T13:39:43.987Z,4.20
2017-09-05T13:42:11.545Z,3.50
2017-09-05T13:44:39.014Z,3.33
2017-09-05T13:47:06.485Z,4.13
2017-09-05T13:49:33.931Z,3.37
2017-09-05T13:52:01.461Z,3.40
2017-09-05T13:54:28.898Z,3.70
2017-09-05T13:56:56.368Z,3.50
2017-09-05T13:59:23.846Z,3.20
2017-09-05T14:01:51.290Z,3.60
2017-09-05T14:04:18.852Z,2.60
2017-09-05T14:06:46.306Z,4.03
2017-09-05T14:09:13.793Z,3.40
2017-09-05T14:11:41.230Z,4.43
2017-09-05T14:14:08.777Z,2.90
2017-09-05T14:16:36.258Z,3.73
2017-09-05T14:19:03.730Z,2.37
2017-09-05T14:21:31.161Z,2.10
2017-09-05T14:23:58.630Z,1.73
2017-09-05T14:26:26.061Z,2.33
2017-09-05T14:28:53.569Z,1.70
2017-09-05T14:31:21.078Z,2.13
2017-09-05T14:33:48.544Z,1.77
2017-09-05T14:36:16.002Z,2.10
2017-09-05T14:38:43.479Z,1.70
2017-09-05T14:41:10.919Z,1.97
2017-09-05T14:43:38.410Z,1.77
2017-09-05T14:46:05.909Z,1.87
2017-09-05T14:48:33.473Z,1.57
2017-09-05T14:51:00.927Z,2.10
2017-09-05T14:53:28.403Z,2.10
2017-09-05T14:55:55.848Z,1.70
2017-09-05T14:58:23.602Z,1.50
2017-09-05T15:00:51.099Z,1.47
2017-09-05T15:03:18.644Z,2.00
2017-09-05T15:05:46.166Z,1.80
2017-09-05T15:08:13.673Z,1.67
2017-09-05T15:10:41.134Z,1.60
2017-09-05T15:13:08.674Z,2.30
2017-09-05T15:15:36.145Z,1.73
2017-09-05T15:18:03.593Z,1.30
2017-09-05T15:20:31.077Z,2.10
2017-09-05T15:22:58.566Z,1.67
2017-09-05T15:25:26.056Z,1.90
2017-09-05T15:27:53.560Z,1.53
2017-09-05T15:30:21.050Z,1.60
2017-09-05T15:32:48.505Z,1.57
2017-09-05T15:35:16.056Z,1.77
2017-09-05T15:37:43.536Z,1.50
2017-09-05T15:40:11.484Z,2.37
2017-09-05T15:42:39.062Z,1.43
2017-09-05T15:45:06.520Z,2.10
2017-09-05T15:47:33.971Z,2.23
2017-09-05T15:50:01.455Z,1.90
2017-09-05T15:52:28.999Z,1.77
2017-09-05T15:54:56.500Z,2.70
2017-09-05T15:57:23.964Z,1.87
2017-09-05T15:59:51.432Z,2.40
2017-09-05T16:02:18.905Z,2.03
2017-09-05T16:04:46.476Z,1.80
2017-09-05T16:07:13.965Z,1.93
2017-09-05T16:09:41.431Z,2.67
2017-09-05T16:12:08.885Z,2.40
2017-09-05T16:14:36.398Z,2.00
2017-09-05T16:17:03.895Z,2.83
2017-09-05T16:19:31.417Z,1.77
2017-09-05T16:21:58.873Z,1.87
2017-09-05T16:24:26.329Z,2.00
2017-09-05T16:26:53.811Z,1.60
2017-09-05T16:29:21.985Z,1.37
2017-09-05T16:31:49.496Z,1.43
2017-09-05T16:34:16.968Z,1.27
2017-09-05T16:36:44.522Z,1.77
2017-09-05T16:39:12.048Z,2.00
2017-09-05T16:41:39.510Z,2.70
2017-09-05T16:44:07.228Z,1.60
2017-09-05T16:46:34.826Z,1.90
2017-09-05T16:49:02.282Z,1.60
2017-09-05T16:51:29.768Z,1.83
2017-09-05T16:53:57.211Z,1.77
2017-09-05T16:56:24.967Z,1.13
2017-09-05T16:58:54.415Z,2.57
2017-09-05T17:01:21.923Z,1.40
2017-09-05T17:03:49.375Z,1.70
2017-09-05T17:06:16.841Z,1.40
2017-09-05T17:08:44.313Z,2.03
2017-09-05T17:11:11.795Z,1.73
2017-09-05T17:13:39.314Z,2.00
2017-09-05T17:16:06.775Z,1.60
2017-09-05T17:18:34.262Z,1.53
2017-09-05T17:21:01.705Z,1.53
2017-09-05T17:23:29.162Z,1.77
2017-09-05T17:25:56.599Z,1.27
2017-09-05T17:28:24.076Z,2.20
2017-09-05T17:30:51.548Z,1.17
2017-09-05T17:33:19.017Z,1.47
2017-09-05T17:35:46.496Z,2.03
2017-09-05T17:38:14.005Z,3.10
2017-09-05T17:40:41.452Z,2.73
2017-09-05T17:43:08.963Z,1.43
2017-09-05T17:45:36.434Z,1.23
2017-09-05T17:48:03.889Z,1.30
2017-09-05T17:50:31.402Z,1.60
2017-09-05T17:52:58.917Z,1.17
2017-09-05T17:55:26.403Z,1.40
2017-09-05T17:57:53.901Z,1.87
2017-09-05T18:00:21.365Z,1.30
2017-09-05T18:02:48.843Z,2.10
2017-09-05T18:05:16.299Z,1.40
2017-09-05T18:07:44.027Z,1.63
2017-09-05T18:10:11.475Z,2.07
2017-09-05T18:12:39.921Z,2.50
2017-09-05T18:15:07.353Z,2.30
2017-09-05T18:17:34.845Z,1.80
2017-09-05T18:20:02.297Z,1.83
2017-09-05T18:22:29.738Z,1.80
2017-09-05T18:24:57.189Z,2.40
2017-09-05T18:27:24.630Z,1.53
2017-09-05T18:29:53.038Z,2.07
2017-09-05T18:32:20.499Z,2.13
2017-09-05T18:34:47.959Z,1.90
2017-09-05T18:37:15.431Z,2.10
2017-09-05T18:39:42.973Z,1.57
2017-09-05T18:42:10.447Z,2.03
2017-09-05T18:44:37.941Z,2.33
2017-09-05T18:47:05.652Z,1.77
2017-09-05T18:49:33.105Z,2.33
2017-09-05T18:52:00.590Z,2.43
2017-09-05T18:54:28.091Z,1.60
2017-09-05T18:56:55.591Z,2.13
2017-09-05T18:59:23.144Z,2.43
2017-09-05T19:01:50.597Z,2.30
2017-09-05T19:04:18.062Z,1.53
2017-09-05T19:06:45.516Z,1.97
2017-09-05T19:09:12.976Z,2.10
2017-09-05T19:11:40.495Z,2.07
2017-09-05T19:14:08.636Z,1.80
2017-09-05T19:16:36.183Z,2.23
2017-09-05T19:19:03.787Z,1.83
2017-09-05T19:21:31.269Z,2.70
2017-09-05T19:23:58.793Z,2.10
2017-09-05T19:26:26.240Z,1.83
2017-09-05T19:28:53.707Z,2.27
2017-09-05T19:31:21.304Z,2.07
2017-09-05T19:33:48.799Z,2.33
2017-09-05T19:36:16.318Z,2.00
2017-09-05T19:38:43.765Z,1.80
2017-09-05T19:41:11.298Z,2.33
2017-09-05T19:43:38.765Z,1.67
2017-09-05T19:46:06.246Z,2.00
2017-09-05T19:48:33.703Z,1.70
2017-09-05T19:51:01.162Z,2.30
2017-09-05T19:53:29.239Z,2.30
2017-09-05T19:55:56.795Z,1.90
2017-09-05T19:58:24.232Z,1.93
2017-09-05T20:00:51.690Z,1.77
2017-09-05T20:03:19.138Z,1.70
2017-09-05T20:05:47.008Z,1.93
2017-09-05T20:08:14.497Z,1.97
2017-09-05T20:10:41.950Z,1.63
2017-09-05T20:13:09.505Z,1.73
2017-09-05T20:15:36.987Z,2.00
2017-09-05T20:18:04.453Z,2.27
2017-09-05T20:20:31.918Z,2.00
2017-09-05T20:22:59.438Z,1.90
2017-09-05T20:25:26.992Z,2.37
2017-09-05T20:27:54.537Z,1.90
2017-09-05T20:30:22.301Z,2.13
2017-09-05T20:32:49.738Z,2.03
2017-09-05T20:35:17.216Z,1.60
2017-09-05T20:37:44.672Z,1.80
2017-09-05T20:40:12.229Z,2.50
2017-09-05T20:42:39.694Z,1.60
2017-09-05T20:45:07.168Z,2.00
2017-09-05T20:47:34.606Z,3.10
2017-09-05T20:50:02.173Z,2.40
2017-09-05T20:52:29.609Z,2.20
2017-09-05T20:54:57.244Z,2.30
2017-09-05T20:57:24.729Z,2.17
2017-09-05T20:59:52.204Z,2.80
2017-09-05T21:02:19.722Z,1.70
2017-09-05T21:04:47.209Z,2.30
2017-09-05T21:07:14.665Z,2.23
2017-09-05T21:09:42.101Z,2.10
2017-09-05T21:12:09.574Z,2.33
2017-09-05T21:14:37.010Z,2.30
2017-09-05T21:17:04.489Z,2.40
2017-09-05T21:19:31.926Z,3.03
2017-09-05T21:21:59.556Z,2.47
2017-09-05T21:24:26.987Z,2.53
2017-09-05T21:26:54.449Z,2.00
2017-09-05T21:29:21.978Z,2.43
2017-09-05T21:31:49.583Z,2.67
2017-09-05T21:34:17.294Z,2.50
2017-09-05T21:36:44.758Z,2.30
2017-09-05T21:39:12.208Z,2.07
2017-09-05T21:41:39.665Z,2.43
2017-09-05T21:44:07.137Z,2.17
2017-09-05T21:46:34.705Z,2.70
2017-09-05T21:49:02.262Z,2.37
2017-09-05T21:51:29.814Z,2.23
2017-09-05T21:53:57.246Z,2.33
2017-09-05T21:56:24.728Z,1.83
2017-09-05T21:58:52.236Z,1.97
2017-09-05T22:01:19.869Z,1.73
2017-09-05T22:03:47.329Z,2.00
2017-09-05T22:06:14.781Z,2.10
2017-09-05T22:11:21.246Z,1.80
2017-09-05T22:13:54.391Z,2.27
2017-09-05T22:16:27.545Z,1.80
2017-09-05T22:19:00.595Z,1.93
2017-09-05T22:21:28.064Z,2.37
2017-09-05T22:23:55.497Z,2.17
2017-09-05T22:26:28.695Z,2.60
2017-09-05T22:29:01.854Z,2.20
2017-09-05T22:31:29.317Z,2.40
2017-09-05T22:33:56.806Z,2.87
2017-09-05T22:36:24.268Z,2.37
2017-09-05T22:38:51.729Z,2.50
2017-09-05T22:41:19.285Z,2.20
2017-09-05T22:43:46.829Z,2.07
2017-09-05T22:46:14.293Z,2.50
2017-09-05T22:48:41.746Z,1.97
2017-09-05T22:51:09.211Z,2.10
2017-09-05T22:53:36.798Z,2.70
2017-09-05T22:56:04.230Z,2.13
2017-09-05T22:58:31.707Z,1.87
2017-09-05T23:00:59.231Z,1.93
2017-09-05T23:03:26.702Z,1.90
2017-09-05T23:05:54.269Z,2.10
2017-09-05T23:08:21.722Z,2.10
2017-09-05T23:10:49.159Z,2.40
2017-09-05T23:13:16.632Z,2.67
2017-09-05T23:15:44.190Z,2.07
2017-09-05T23:18:12.966Z,2.20
2017-09-05T23:20:40.420Z,2.63
2017-09-05T23:23:07.943Z,2.27
2017-09-05T23:25:35.409Z,2.77
2017-09-05T23:28:03.508Z,2.50
2017-09-05T23:30:31.006Z,2.20
2017-09-05T23:32:58.530Z,2.10
2017-09-05T23:35:25.974Z,3.13
2017-09-05T23:37:53.429Z,1.90
2017-09-05T23:40:20.866Z,2.20
2017-09-05T23:42:48.370Z,2.77
2017-09-05T23:45:15.839Z,2.10
2017-09-05T23:47:43.304Z,1.97
2017-09-05T23:50:10.749Z,1.90
2017-09-05T23:52:38.302Z,2.10
2017-09-05T23:55:05.834Z,1.73
2017-09-05T23:57:33.286Z,1.67
